Time;durP1;ratioP1;P1;durP2;ratioP2;P2;SDS_P1;SDS_P2;PMS_P1;PMS_P2;Temp;Humidity;BMP_temperature;BMP_pressure;BME280_temperature;BME280_humidity;BME280_pressure;Samples;Min_cycle;Max_cycle;Signal;HPM_P1;HPM_P2
2022/03/07 00:01:58;;;;;;;;;;;2.70;75.60;;;;;;5051649;28;81821;-49
2022/03/07 00:04:23;;;;;;;;;;;2.70;75.60;;;;;;5051391;28;83398;-51
2022/03/07 00:06:49;;;;;;;;;;;2.70;75.60;;;;;;5051582;28;81820;-53
2022/03/07 00:09:15;;;;;;;;;;;2.70;75.50;;;;;;5052031;28;82022;-50
2022/03/07 00:11:41;;;;;;;;;;;2.80;75.40;;;;;;5053160;28;82506;-50
2022/03/07 00:14:07;;;;;;;;;;;2.80;75.40;;;;;;5051879;28;82038;-50
2022/03/07 00:16:32;;;;;;;;;;;2.80;75.50;;;;;;5050702;28;83271;-50
2022/03/07 00:18:58;;;;;;;;;;;2.70;75.60;;;;;;5053916;28;82823;-53
2022/03/07 00:21:24;;;;;;;;;;;2.70;75.80;;;;;;5051642;28;81830;-51
2022/03/07 00:23:49;;;;;;;;;;;2.60;75.90;;;;;;5051111;28;82578;-52
2022/03/07 00:26:17;;;;;;;;;;;2.70;75.80;;;;;;5051490;28;81799;-52
2022/03/07 00:28:43;;;;;;;;;;;2.70;75.80;;;;;;5051148;28;83199;-50
2022/03/07 00:31:08;;;;;;;;;;;2.60;75.90;;;;;;5050926;28;83383;-50
2022/03/07 00:33:34;;;;;;;;;;;2.70;76.00;;;;;;5052275;28;81280;-52
2022/03/07 00:35:59;;;;;;;;;;;2.60;76.00;;;;;;5051021;28;82070;-49
2022/03/07 00:38:25;;;;;;;;;;;2.60;75.90;;;;;;5050725;28;83747;-50
2022/03/07 00:40:51;;;;;;;;;;;2.70;75.70;;;;;;5053463;28;82636;-51
2022/03/07 00:43:18;;;;;;;;;;;2.70;75.80;;;;;;5050997;28;82361;-50
2022/03/07 00:45:44;;;;;;;;;;;2.60;75.70;;;;;;5051190;28;81817;-50
2022/03/07 00:48:09;;;;;;;;;;;2.60;76.50;;;;;;5051234;28;81746;-49
2022/03/07 00:50:35;;;;;;;;;;;2.70;75.90;;;;;;5050583;28;82809;-53
2022/03/07 00:53:01;;;;;;;;;;;2.70;75.80;;;;;;5050803;28;81894;-50
2022/03/07 00:55:27;;;;;;;;;;;2.60;75.60;;;;;;5050780;27;82980;-50
2022/03/07 00:57:52;;;;;;;;;;;2.70;75.50;;;;;;5051161;28;81744;-48
2022/03/07 01:00:18;;;;;;;;;;;2.70;75.30;;;;;;5050700;28;81716;-50
2022/03/07 01:02:44;;;;;;;;;;;2.70;75.20;;;;;;5053266;28;83048;-48
2022/03/07 01:05:09;;;;;;;;;;;2.70;75.10;;;;;;5049940;28;83028;-49
2022/03/07 01:07:35;;;;;;;;;;;2.70;75.40;;;;;;5050583;28;83887;-49
2022/03/07 01:10:01;;;;;;;;;;;2.70;75.50;;;;;;5050273;28;83861;-49
2022/03/07 01:12:26;;;;;;;;;;;2.60;75.40;;;;;;5050527;28;81910;-49
2022/03/07 01:14:52;;;;;;;;;;;2.60;75.50;;;;;;5050909;28;81945;-48
2022/03/07 01:17:17;;;;;;;;;;;2.60;75.60;;;;;;5050432;28;81891;-49
2022/03/07 01:19:43;;;;;;;;;;;2.70;75.40;;;;;;5050760;28;82052;-49
2022/03/07 01:22:08;;;;;;;;;;;2.70;75.30;;;;;;5053310;28;82718;-49
2022/03/07 01:24:36;;;;;;;;;;;2.70;75.20;;;;;;5050618;28;81904;-50
2022/03/07 01:27:02;;;;;;;;;;;2.70;75.10;;;;;;5050237;28;83062;-50
2022/03/07 01:29:28;;;;;;;;;;;2.70;75.10;;;;;;5049577;28;84332;-50
2022/03/07 01:31:53;;;;;;;;;;;2.70;75.20;;;;;;5052010;28;81816;-50
2022/03/07 01:34:19;;;;;;;;;;;2.60;75.30;;;;;;5050407;28;82690;-49
2022/03/07 01:36:44;;;;;;;;;;;2.70;75.10;;;;;;5049533;28;82734;-50
2022/03/07 01:39:10;;;;;;;;;;;2.70;75.10;;;;;;5050137;28;81808;-48
2022/03/07 01:41:35;;;;;;;;;;;2.70;75.20;;;;;;5050547;28;81872;-53
2022/03/07 01:44:01;;;;;;;;;;;2.70;75.30;;;;;;5052595;28;82930;-49
2022/03/07 01:46:28;;;;;;;;;;;2.70;75.20;;;;;;5050333;28;83269;-49
2022/03/07 01:48:53;;;;;;;;;;;2.70;75.20;;;;;;5049781;28;82708;-50
2022/03/07 01:51:20;;;;;;;;;;;2.70;75.10;;;;;;5049838;28;81853;-49
2022/03/07 01:53:46;;;;;;;;;;;2.60;75.10;;;;;;5049426;28;82726;-49
2022/03/07 01:56:11;;;;;;;;;;;2.70;75.10;;;;;;5049217;28;82903;-49
2022/03/07 01:58:37;;;;;;;;;;;2.70;75.00;;;;;;5049729;28;82369;-49
2022/03/07 02:01:02;;;;;;;;;;;2.70;75.10;;;;;;5049815;28;82121;-50
2022/03/07 02:03:28;;;;;;;;;;;2.60;75.00;;;;;;5049755;28;82443;-50
2022/03/07 02:05:54;;;;;;;;;;;2.60;75.00;;;;;;5051866;27;81845;-49
2022/03/07 02:08:19;;;;;;;;;;;2.70;75.00;;;;;;5049429;28;83260;-50
2022/03/07 02:10:45;;;;;;;;;;;2.60;75.00;;;;;;5050470;28;81334;-49
2022/03/07 02:13:11;;;;;;;;;;;2.70;75.10;;;;;;5049634;28;81900;-49
2022/03/07 02:15:37;;;;;;;;;;;2.70;75.10;;;;;;5050020;28;82001;-50
2022/03/07 02:18:02;;;;;;;;;;;2.60;75.00;;;;;;5048811;28;82832;-49
2022/03/07 02:20:28;;;;;;;;;;;2.70;75.10;;;;;;5049713;28;82537;-48
2022/03/07 02:22:53;;;;;;;;;;;2.60;75.10;;;;;;5049204;28;83746;-50
2022/03/07 02:25:19;;;;;;;;;;;2.60;75.00;;;;;;5049307;28;81798;-49
2022/03/07 02:27:44;;;;;;;;;;;2.60;75.00;;;;;;5051876;28;82037;-50
2022/03/07 02:30:10;;;;;;;;;;;2.60;75.00;;;;;;5049382;28;81940;-50
2022/03/07 02:32:36;;;;;;;;;;;2.60;75.00;;;;;;5049290;28;82231;-49
2022/03/07 02:35:02;;;;;;;;;;;2.60;75.00;;;;;;5049229;28;82035;-49
2022/03/07 02:37:27;;;;;;;;;;;2.60;75.10;;;;;;5049082;28;81819;-51
2022/03/07 02:39:53;;;;;;;;;;;2.60;75.10;;;;;;5049323;28;82894;-49
2022/03/07 02:42:18;;;;;;;;;;;2.60;75.10;;;;;;5048772;28;83386;-49
2022/03/07 02:44:44;;;;;;;;;;;2.60;75.00;;;;;;5049531;28;81804;-49
2022/03/07 02:47:14;;;;;;;;;;;2.60;75.20;;;;;;5049317;28;82721;-50
2022/03/07 02:49:39;;;;;;;;;;;2.60;75.00;;;;;;5052713;28;83742;-49
2022/03/07 02:52:06;;;;;;;;;;;2.60;75.00;;;;;;5049444;28;83283;-49
2022/03/07 02:54:32;;;;;;;;;;;2.60;75.00;;;;;;5048770;28;83595;-49
2022/03/07 02:56:57;;;;;;;;;;;2.60;75.00;;;;;;5049129;28;81947;-49
2022/03/07 02:59:23;;;;;;;;;;;2.50;75.10;;;;;;5049837;28;82264;-48
2022/03/07 03:01:48;;;;;;;;;;;2.60;75.10;;;;;;5048995;28;82586;-49
2022/03/07 03:04:14;;;;;;;;;;;2.60;75.00;;;;;;5048934;28;81887;-49
2022/03/07 03:06:41;;;;;;;;;;;2.60;75.00;;;;;;5048621;28;83494;-51
2022/03/07 03:09:07;;;;;;;;;;;2.60;75.10;;;;;;5048799;28;83638;-49
2022/03/07 03:11:33;;;;;;;;;;;2.60;75.10;;;;;;5051817;28;82167;-49
2022/03/07 03:13:59;;;;;;;;;;;2.50;75.10;;;;;;5048595;28;83729;-49
2022/03/07 03:16:25;;;;;;;;;;;2.50;75.10;;;;;;5048721;28;81754;-49
2022/03/07 03:18:50;;;;;;;;;;;2.50;75.30;;;;;;5050372;27;83104;-49
2022/03/07 03:21:17;;;;;;;;;;;2.50;75.80;;;;;;5052022;28;83463;-49
2022/03/07 03:23:43;;;;;;;;;;;2.50;75.20;;;;;;5052800;28;81080;-49
2022/03/07 03:26:09;;;;;;;;;;;2.50;75.10;;;;;;5052322;28;82012;-49
2022/03/07 03:28:34;;;;;;;;;;;2.50;75.10;;;;;;5052064;28;83416;-49
2022/03/07 03:31:00;;;;;;;;;;;2.50;75.00;;;;;;5054458;28;82849;-49
2022/03/07 03:33:26;;;;;;;;;;;2.50;75.00;;;;;;5052134;28;81813;-50
2022/03/07 03:35:51;;;;;;;;;;;2.50;75.00;;;;;;5051598;28;81834;-50
2022/03/07 03:38:17;;;;;;;;;;;2.50;75.10;;;;;;5051930;28;81930;-50
2022/03/07 03:40:42;;;;;;;;;;;2.50;75.20;;;;;;5052040;28;82421;-52
2022/03/07 03:43:08;;;;;;;;;;;2.50;75.70;;;;;;5051838;28;82306;-50
2022/03/07 03:45:33;;;;;;;;;;;2.50;75.10;;;;;;5051857;28;82883;-49
2022/03/07 03:47:59;;;;;;;;;;;2.50;75.20;;;;;;5052179;28;82770;-51
2022/03/07 03:50:25;;;;;;;;;;;2.50;75.20;;;;;;5052077;28;81824;-49
2022/03/07 03:52:50;;;;;;;;;;;2.50;75.10;;;;;;5054387;28;82913;-50
2022/03/07 03:55:16;;;;;;;;;;;2.50;75.10;;;;;;5050923;28;82850;-50
2022/03/07 03:57:43;;;;;;;;;;;2.40;75.20;;;;;;5051640;28;83754;-51
2022/03/07 04:00:10;;;;;;;;;;;2.50;75.10;;;;;;5051459;28;82572;-50
2022/03/07 04:02:36;;;;;;;;;;;2.50;75.10;;;;;;5051591;28;82156;-50
2022/03/07 04:05:02;;;;;;;;;;;2.50;75.00;;;;;;5051651;28;82797;-50
2022/03/07 04:07:27;;;;;;;;;;;2.50;75.00;;;;;;5051524;28;82185;-50
2022/03/07 04:09:53;;;;;;;;;;;2.50;75.20;;;;;;5052133;28;81787;-49
2022/03/07 04:12:19;;;;;;;;;;;2.50;75.10;;;;;;5051994;28;82256;-49
2022/03/07 04:14:44;;;;;;;;;;;2.50;75.10;;;;;;5053999;28;82478;-49
2022/03/07 04:17:10;;;;;;;;;;;2.50;75.10;;;;;;5051355;28;82848;-49
2022/03/07 04:19:35;;;;;;;;;;;2.50;75.10;;;;;;5050491;28;83471;-50
2022/03/07 04:22:01;;;;;;;;;;;2.40;75.00;;;;;;5051534;28;81829;-50
2022/03/07 04:24:30;;;;;;;;;;;2.40;75.00;;;;;;5051230;28;82484;-50
2022/03/07 04:26:56;;;;;;;;;;;2.40;75.10;;;;;;5050976;28;83706;-50
2022/03/07 04:29:21;;;;;;;;;;;2.40;75.10;;;;;;5051132;27;81914;-49
2022/03/07 04:31:47;;;;;;;;;;;2.40;75.10;;;;;;5051087;28;82785;-48
2022/03/07 04:34:13;;;;;;;;;;;2.50;75.10;;;;;;5050920;28;82667;-49
2022/03/07 04:36:39;;;;;;;;;;;2.50;75.00;;;;;;5053901;28;81310;-49
2022/03/07 04:39:05;;;;;;;;;;;2.40;75.10;;;;;;5051157;28;81801;-49
2022/03/07 04:41:31;;;;;;;;;;;2.40;75.10;;;;;;5050954;28;81918;-50
2022/03/07 04:43:57;;;;;;;;;;;2.40;75.10;;;;;;5050413;28;82854;-50
2022/03/07 04:46:22;;;;;;;;;;;2.40;75.10;;;;;;5050697;28;83649;-50
2022/03/07 04:48:48;;;;;;;;;;;2.40;75.10;;;;;;5050830;28;81837;-50
2022/03/07 04:51:13;;;;;;;;;;;2.40;75.10;;;;;;5050850;28;82718;-50
2022/03/07 04:53:39;;;;;;;;;;;2.40;75.10;;;;;;5050823;28;83399;-52
2022/03/07 04:56:05;;;;;;;;;;;2.40;75.10;;;;;;5050799;28;81964;-53
2022/03/07 04:58:30;;;;;;;;;;;2.40;75.10;;;;;;5053312;28;82637;-50
2022/03/07 05:00:56;;;;;;;;;;;2.40;75.10;;;;;;5051161;28;80998;-51
2022/03/07 05:03:21;;;;;;;;;;;2.40;75.10;;;;;;5051031;28;81720;-52
2022/03/07 05:05:48;;;;;;;;;;;2.40;75.20;;;;;;5050685;28;82766;-49
2022/03/07 05:08:13;;;;;;;;;;;2.40;75.10;;;;;;5049930;28;82843;-51
2022/03/07 05:10:39;;;;;;;;;;;2.40;75.10;;;;;;5051072;28;82263;-49
2022/03/07 05:13:04;;;;;;;;;;;2.40;75.10;;;;;;5050331;28;82712;-50
2022/03/07 05:15:30;;;;;;;;;;;2.40;75.10;;;;;;5050535;28;81823;-53
2022/03/07 05:17:55;;;;;;;;;;;2.40;75.10;;;;;;5050603;28;81808;-51
2022/03/07 05:20:22;;;;;;;;;;;2.40;75.00;;;;;;5053012;28;82656;-51
2022/03/07 05:22:47;;;;;;;;;;;2.40;75.10;;;;;;5050331;28;82750;-50
2022/03/07 05:25:14;;;;;;;;;;;2.40;75.20;;;;;;5051181;28;81359;-51
2022/03/07 05:27:39;;;;;;;;;;;2.30;75.20;;;;;;5050695;28;81802;-51
2022/03/07 05:30:06;;;;;;;;;;;2.40;75.10;;;;;;5050815;28;82850;-49
2022/03/07 05:32:32;;;;;;;;;;;2.40;75.20;;;;;;5049268;28;84428;-50
2022/03/07 05:34:58;;;;;;;;;;;2.40;75.10;;;;;;5049911;28;81850;-53
2022/03/07 05:37:23;;;;;;;;;;;2.40;75.00;;;;;;5050005;28;82813;-50
2022/03/07 05:39:49;;;;;;;;;;;2.40;75.10;;;;;;5052493;28;83394;-52
2022/03/07 05:42:15;;;;;;;;;;;2.40;75.10;;;;;;5049408;28;82055;-52
2022/03/07 05:44:40;;;;;;;;;;;2.40;75.10;;;;;;5050209;28;82387;-52
2022/03/07 05:47:06;;;;;;;;;;;2.40;75.00;;;;;;5050558;28;82153;-50
2022/03/07 05:49:31;;;;;;;;;;;2.40;75.00;;;;;;5050341;28;82859;-51
2022/03/07 05:51:57;;;;;;;;;;;2.40;75.10;;;;;;5049848;28;82385;-50
2022/03/07 05:54:22;;;;;;;;;;;2.40;75.10;;;;;;5050160;28;81893;-50
2022/03/07 05:56:48;;;;;;;;;;;2.40;75.10;;;;;;5049258;28;82764;-50
2022/03/07 05:59:14;;;;;;;;;;;2.40;75.10;;;;;;5049633;28;82619;-50
2022/03/07 06:04:23;;;;;;;;;;;2.40;75.00;;;;;;5049850;28;82134;-49
2022/03/07 06:06:49;;;;;;;;;;;2.40;75.10;;;;;;5049493;28;81864;-49
2022/03/07 06:09:14;;;;;;;;;;;2.40;75.10;;;;;;5049962;28;81830;-49
2022/03/07 06:11:40;;;;;;;;;;;2.40;74.90;;;;;;5049549;28;82519;-51
2022/03/07 06:14:05;;;;;;;;;;;2.40;74.90;;;;;;5050264;28;81091;-51
2022/03/07 06:16:31;;;;;;;;;;;2.40;74.90;;;;;;5049723;28;81833;-49
2022/03/07 06:18:56;;;;;;;;;;;2.40;75.00;;;;;;5049187;28;82552;-49
2022/03/07 06:21:22;;;;;;;;;;;2.30;75.00;;;;;;5048648;28;82756;-50
2022/03/07 06:23:47;;;;;;;;;;;2.40;75.10;;;;;;5051808;28;84174;-49
2022/03/07 06:26:13;;;;;;;;;;;2.40;75.00;;;;;;5049663;28;81783;-50
2022/03/07 06:28:38;;;;;;;;;;;2.40;75.00;;;;;;5049335;28;83280;-49
2022/03/07 06:31:04;;;;;;;;;;;2.40;75.00;;;;;;5049553;28;82687;-49
2022/03/07 06:33:30;;;;;;;;;;;2.30;75.00;;;;;;5049269;28;81884;-49
2022/03/07 06:35:55;;;;;;;;;;;2.40;75.00;;;;;;5048906;28;82699;-49
2022/03/07 06:38:21;;;;;;;;;;;2.40;75.00;;;;;;5049413;28;82718;-49
2022/03/07 06:40:46;;;;;;;;;;;2.40;74.90;;;;;;5049246;28;81895;-49
2022/03/07 06:43:12;;;;;;;;;;;2.40;74.80;;;;;;5049452;28;81792;-49
2022/03/07 06:45:38;;;;;;;;;;;2.40;74.90;;;;;;5051241;28;83542;-49
2022/03/07 06:48:04;;;;;;;;;;;2.40;74.90;;;;;;5050195;28;82710;-49
2022/03/07 06:50:31;;;;;;;;;;;2.40;75.00;;;;;;5049151;28;81781;-50
2022/03/07 06:52:57;;;;;;;;;;;2.30;75.00;;;;;;5050995;27;81826;-49
2022/03/07 06:55:23;;;;;;;;;;;2.40;75.00;;;;;;5052849;28;81851;-49
2022/03/07 06:57:49;;;;;;;;;;;2.40;74.80;;;;;;5052596;28;82495;-49
2022/03/07 07:00:15;;;;;;;;;;;2.40;74.90;;;;;;5052925;28;81821;-49
2022/03/07 07:02:41;;;;;;;;;;;2.40;74.90;;;;;;5053009;28;83058;-49
2022/03/07 07:05:08;;;;;;;;;;;2.40;75.10;;;;;;5052251;28;82642;-49
2022/03/07 07:07:33;;;;;;;;;;;2.30;75.20;;;;;;5055260;28;81783;-50
2022/03/07 07:09:59;;;;;;;;;;;2.30;75.20;;;;;;5051523;28;84813;-49
2022/03/07 07:12:24;;;;;;;;;;;2.30;75.30;;;;;;5052547;28;81816;-50
2022/03/07 07:14:50;;;;;;;;;;;2.30;75.30;;;;;;5052393;28;82821;-50
2022/03/07 07:17:16;;;;;;;;;;;2.30;75.30;;;;;;5051990;28;83533;-49
2022/03/07 07:19:41;;;;;;;;;;;2.30;75.10;;;;;;5052341;28;81808;-49
2022/03/07 07:22:07;;;;;;;;;;;2.30;75.20;;;;;;5052181;28;82926;-49
2022/03/07 07:24:32;;;;;;;;;;;2.30;75.10;;;;;;5051992;28;83463;-49
2022/03/07 07:26:58;;;;;;;;;;;2.30;75.30;;;;;;5052662;28;80980;-49
2022/03/07 07:29:23;;;;;;;;;;;2.30;75.10;;;;;;5054765;28;82283;-49
2022/03/07 07:31:51;;;;;;;;;;;2.30;75.10;;;;;;5052503;28;81872;-49
2022/03/07 07:34:16;;;;;;;;;;;2.30;75.30;;;;;;5051457;28;83075;-49
2022/03/07 07:36:42;;;;;;;;;;;2.30;75.30;;;;;;5051530;28;82614;-49
2022/03/07 07:39:08;;;;;;;;;;;2.30;75.10;;;;;;5052137;28;81830;-49
2022/03/07 07:41:34;;;;;;;;;;;2.30;75.10;;;;;;5052112;28;81965;-50
2022/03/07 07:43:59;;;;;;;;;;;2.30;75.80;;;;;;5051597;28;83766;-49
2022/03/07 07:46:25;;;;;;;;;;;2.30;75.20;;;;;;5052224;28;81699;-49
2022/03/07 07:48:50;;;;;;;;;;;2.30;75.20;;;;;;5054832;28;81937;-50
2022/03/07 07:51:16;;;;;;;;;;;2.30;75.10;;;;;;5052566;28;81390;-49
2022/03/07 07:53:42;;;;;;;;;;;2.30;75.30;;;;;;5052205;28;81835;-50
2022/03/07 07:56:08;;;;;;;;;;;2.20;75.20;;;;;;5051786;28;81780;-49
2022/03/07 07:58:33;;;;;;;;;;;2.20;75.30;;;;;;5051193;28;82878;-49
2022/03/07 08:00:59;;;;;;;;;;;2.20;75.40;;;;;;5051859;28;82748;-50
2022/03/07 08:03:25;;;;;;;;;;;2.20;75.40;;;;;;5050960;27;82662;-49
2022/03/07 08:05:51;;;;;;;;;;;2.20;75.40;;;;;;5051625;28;81972;-49
2022/03/07 08:08:17;;;;;;;;;;;2.30;75.40;;;;;;5052313;28;82912;-49
2022/03/07 08:10:43;;;;;;;;;;;2.30;75.30;;;;;;5054258;28;82419;-49
2022/03/07 08:13:08;;;;;;;;;;;2.20;75.20;;;;;;5051792;28;81832;-49
2022/03/07 08:15:34;;;;;;;;;;;2.20;75.20;;;;;;5051745;28;82831;-49
2022/03/07 08:17:59;;;;;;;;;;;2.20;75.70;;;;;;5051298;28;81840;-49
2022/03/07 08:20:27;;;;;;;;;;;2.20;75.70;;;;;;5051603;28;81747;-49
2022/03/07 08:22:52;;;;;;;;;;;2.20;75.50;;;;;;5050363;28;83409;-49
2022/03/07 08:25:18;;;;;;;;;;;2.20;75.60;;;;;;5051306;28;81795;-49
2022/03/07 08:27:44;;;;;;;;;;;2.20;75.50;;;;;;5051313;28;82751;-49
2022/03/07 08:30:11;;;;;;;;;;;2.30;75.80;;;;;;5051053;28;83386;-49
2022/03/07 08:32:37;;;;;;;;;;;2.20;75.40;;;;;;5053947;28;81898;-49
2022/03/07 08:35:04;;;;;;;;;;;2.20;75.40;;;;;;5050612;28;83359;-49
2022/03/07 08:37:29;;;;;;;;;;;2.20;75.40;;;;;;5050975;28;81788;-49
2022/03/07 08:39:55;;;;;;;;;;;2.20;75.50;;;;;;5051490;28;82843;-50
2022/03/07 08:42:20;;;;;;;;;;;2.30;75.40;;;;;;5051090;28;82492;-49
2022/03/07 08:44:46;;;;;;;;;;;2.20;75.50;;;;;;5051033;28;81724;-49
2022/03/07 08:47:12;;;;;;;;;;;2.20;75.70;;;;;;5050547;28;82867;-49
2022/03/07 08:49:37;;;;;;;;;;;2.20;75.70;;;;;;5050787;28;83573;-49
2022/03/07 08:52:03;;;;;;;;;;;2.20;75.40;;;;;;5051049;28;81779;-49
2022/03/07 08:54:29;;;;;;;;;;;2.20;75.70;;;;;;5053275;28;83156;-49
2022/03/07 08:56:54;;;;;;;;;;;2.20;75.60;;;;;;5050896;28;81930;-49
2022/03/07 08:59:20;;;;;;;;;;;2.20;75.70;;;;;;5050766;28;82021;-49
2022/03/07 09:01:45;;;;;;;;;;;2.10;75.70;;;;;;5050429;28;83621;-49
2022/03/07 09:04:11;;;;;;;;;;;2.20;75.70;;;;;;5051393;28;81166;-49
2022/03/07 09:06:36;;;;;;;;;;;2.20;75.70;;;;;;5050616;28;82544;-49
2022/03/07 09:09:02;;;;;;;;;;;2.20;75.70;;;;;;5050628;28;81743;-49
2022/03/07 09:11:28;;;;;;;;;;;2.20;75.70;;;;;;5049010;28;82765;-50
2022/03/07 09:13:53;;;;;;;;;;;2.10;75.70;;;;;;5050530;28;84097;-49
2022/03/07 09:16:19;;;;;;;;;;;2.10;75.70;;;;;;5051639;28;83664;-49
2022/03/07 09:18:45;;;;;;;;;;;2.10;75.70;;;;;;5050717;28;81890;-49
2022/03/07 09:21:10;;;;;;;;;;;2.10;75.70;;;;;;5050410;28;82382;-49
2022/03/07 09:23:38;;;;;;;;;;;2.20;75.70;;;;;;5050686;28;81705;-50
2022/03/07 09:26:04;;;;;;;;;;;2.20;75.70;;;;;;5050596;28;82821;-50
2022/03/07 09:28:29;;;;;;;;;;;2.10;75.70;;;;;;5050851;28;81815;-49
2022/03/07 09:30:55;;;;;;;;;;;2.10;75.70;;;;;;5050485;28;82245;-51
2022/03/07 09:33:20;;;;;;;;;;;2.10;75.70;;;;;;5050617;28;82024;-49
2022/03/07 09:35:46;;;;;;;;;;;2.20;75.70;;;;;;5049071;28;83806;-49
2022/03/07 09:38:12;;;;;;;;;;;2.20;75.70;;;;;;5052929;28;81918;-49
2022/03/07 09:40:37;;;;;;;;;;;2.20;75.70;;;;;;5049794;28;83283;-49
2022/03/07 09:43:03;;;;;;;;;;;2.20;75.70;;;;;;5049997;28;81754;-49
2022/03/07 09:45:29;;;;;;;;;;;2.20;75.70;;;;;;5050278;28;81808;-49
2022/03/07 09:47:56;;;;;;;;;;;2.10;75.90;;;;;;5049621;28;83864;-50
2022/03/07 09:50:22;;;;;;;;;;;2.20;75.80;;;;;;5050387;28;82031;-50
2022/03/07 09:52:48;;;;;;;;;;;2.20;75.70;;;;;;5050332;28;83536;-49
2022/03/07 09:55:14;;;;;;;;;;;2.20;75.80;;;;;;5049766;28;82687;-49
2022/03/07 09:57:41;;;;;;;;;;;2.10;76.00;;;;;;5052528;28;81779;-49
2022/03/07 10:00:07;;;;;;;;;;;2.10;75.90;;;;;;5048661;28;82794;-49
2022/03/07 10:02:33;;;;;;;;;;;2.10;76.10;;;;;;5049709;28;81804;-49
2022/03/07 10:04:59;;;;;;;;;;;2.20;75.90;;;;;;5049738;28;82045;-50
2022/03/07 10:07:25;;;;;;;;;;;2.10;75.90;;;;;;5049853;28;82452;-50
2022/03/07 10:10:01;;;;;;;;;;;2.20;76.00;;;;;;5049945;28;82225;-49
2022/03/07 10:12:27;;;;;;;;;;;2.20;75.90;;;;;;5049556;28;82972;-49
2022/03/07 10:14:53;;;;;;;;;;;2.20;76.20;;;;;;5049334;28;82759;-49
2022/03/07 10:17:20;;;;;;;;;;;2.10;75.90;;;;;;5049887;28;80962;-49
2022/03/07 10:19:46;;;;;;;;;;;2.10;76.30;;;;;;5052327;28;82126;-49
2022/03/07 10:22:19;;;;;;;;;;;2.20;76.00;;;;;;5049485;28;81923;-49
2022/03/07 10:24:44;;;;;;;;;;;2.10;76.20;;;;;;5048880;28;82758;-50
2022/03/07 10:27:10;;;;;;;;;;;2.10;75.90;;;;;;5049037;28;82444;-49
2022/03/07 10:29:48;;;;;;;;;;;2.20;75.90;;;;;;5049734;28;81907;-49
2022/03/07 10:32:17;;;;;;;;;;;2.20;75.80;;;;;;5049341;28;82954;-49
2022/03/07 10:34:42;;;;;;;;;;;2.20;75.70;;;;;;5048771;28;83611;-49
2022/03/07 10:37:08;;;;;;;;;;;2.20;76.10;;;;;;5049415;28;82292;-49
2022/03/07 10:39:35;;;;;;;;;;;2.20;76.20;;;;;;5049474;28;81718;-49
2022/03/07 10:42:01;;;;;;;;;;;2.20;76.20;;;;;;5052179;28;82751;-49
2022/03/07 10:44:29;;;;;;;;;;;2.20;75.80;;;;;;5049936;28;81693;-49
2022/03/07 10:47:04;;;;;;;;;;;2.20;76.00;;;;;;5049389;28;81868;-49
2022/03/07 10:49:30;;;;;;;;;;;2.20;75.90;;;;;;5048493;28;82765;-49
2022/03/07 10:51:55;;;;;;;;;;;2.20;75.90;;;;;;5049256;28;81824;-49
2022/03/07 10:54:22;;;;;;;;;;;2.20;76.20;;;;;;5048738;28;83212;-49
2022/03/07 10:56:51;;;;;;;;;;;2.20;76.00;;;;;;5048760;28;81910;-47
2022/03/07 10:59:27;;;;;;;;;;;2.20;76.20;;;;;;5049323;28;81844;-49
2022/03/07 11:02:22;;;;;;;;;;;2.20;76.00;;;;;;5048693;28;83443;-49
2022/03/07 11:04:48;;;;;;;;;;;2.20;76.00;;;;;;5033939;28;81939;-49
2022/03/07 11:07:14;;;;;;;;;;;2.20;76.10;;;;;;5049356;28;82040;-49
2022/03/07 11:09:40;;;;;;;;;;;2.20;76.20;;;;;;5049131;28;81871;-49
2022/03/07 11:12:09;;;;;;;;;;;2.20;76.20;;;;;;5048840;28;81963;-51
2022/03/07 11:14:35;;;;;;;;;;;2.20;76.20;;;;;;5047933;28;84655;-49
2022/03/07 11:17:01;;;;;;;;;;;2.10;76.20;;;;;;5048969;28;81952;-49
2022/03/07 11:19:27;;;;;;;;;;;2.20;76.20;;;;;;5048597;28;82889;-50
2022/03/07 11:21:54;;;;;;;;;;;2.20;76.10;;;;;;5048745;28;82428;-49
2022/03/07 11:24:22;;;;;;;;;;;2.10;76.20;;;;;;5048703;28;81894;-49
2022/03/07 11:26:48;;;;;;;;;;;2.20;76.20;;;;;;5051404;28;81922;-49
2022/03/07 11:29:15;;;;;;;;;;;2.10;76.30;;;;;;5048634;28;81718;-49
2022/03/07 11:31:40;;;;;;;;;;;2.10;76.20;;;;;;5049040;28;82840;-49
2022/03/07 11:34:07;;;;;;;;;;;2.10;76.20;;;;;;5048365;28;83418;-49
2022/03/07 11:36:35;;;;;;;;;;;2.20;76.20;;;;;;5048070;28;81778;-49
2022/03/07 11:39:01;;;;;;;;;;;2.10;76.30;;;;;;5048344;28;83596;-49
2022/03/07 11:41:31;;;;;;;;;;;2.10;76.20;;;;;;5051656;28;83468;-49
2022/03/07 11:44:01;;;;;;;;;;;2.20;76.40;;;;;;5051833;28;81870;-49
2022/03/07 11:46:34;;;;;;;;;;;2.10;76.40;;;;;;5054362;28;82824;-49
2022/03/07 11:49:00;;;;;;;;;;;2.10;76.40;;;;;;5051952;28;81899;-49
2022/03/07 11:51:28;;;;;;;;;;;2.10;76.50;;;;;;5051807;28;82929;-49
2022/03/07 11:53:54;;;;;;;;;;;2.10;76.20;;;;;;5050636;28;82531;-49
2022/03/07 11:56:20;;;;;;;;;;;2.10;76.50;;;;;;5052535;28;81074;-49
2022/03/07 11:58:50;;;;;;;;;;;2.10;76.30;;;;;;5051882;28;82263;-49
2022/03/07 12:01:16;;;;;;;;;;;2.10;76.50;;;;;;5051443;28;82679;-49
2022/03/07 12:03:42;;;;;;;;;;;2.10;76.30;;;;;;5050970;28;83202;-49
2022/03/07 12:06:12;;;;;;;;;;;2.10;76.40;;;;;;5051505;28;83809;-49
2022/03/07 12:08:50;;;;;;;;;;;2.10;76.40;;;;;;5225536;22;83624;-48
2022/03/07 12:11:23;;;;;;;;;;;2.10;76.70;;;;;;5031041;28;82915;-49
2022/03/07 12:16:25;;;;;;;;;;;2.10;76.60;;;;;;5058222;22;82259;-50
2022/03/07 12:18:52;;;;;;;;;;;2.10;76.70;;;;;;5011323;28;82155;-50
2022/03/07 12:21:24;;;;;;;;;;;2.10;76.60;;;;;;5011521;28;82908;-50
2022/03/07 12:23:49;;;;;;;;;;;2.10;76.40;;;;;;5011234;28;82107;-50
2022/03/07 12:26:16;;;;;;;;;;;2.20;76.50;;;;;;5011157;28;81913;-50
2022/03/07 12:28:43;;;;;;;;;;;2.10;76.50;;;;;;5010317;28;83866;-50
2022/03/07 12:31:09;;;;;;;;;;;2.10;76.60;;;;;;5013744;28;81757;-50
2022/03/07 12:33:35;;;;;;;;;;;2.20;76.30;;;;;;5011086;28;82350;-50
2022/03/07 12:36:02;;;;;;;;;;;2.10;76.30;;;;;;5010954;28;82062;-50
2022/03/07 12:38:28;;;;;;;;;;;2.10;76.50;;;;;;5010288;28;81986;-50
2022/03/07 12:40:54;;;;;;;;;;;2.10;76.70;;;;;;5010605;28;83529;-50
2022/03/07 12:43:20;;;;;;;;;;;2.10;76.50;;;;;;5011000;28;81846;-50
2022/03/07 12:45:46;;;;;;;;;;;2.10;76.40;;;;;;5011161;28;83261;-50
2022/03/07 12:48:12;;;;;;;;;;;2.10;76.60;;;;;;5010538;28;83408;-50
2022/03/07 12:50:38;;;;;;;;;;;2.10;76.40;;;;;;5010439;28;81971;-50
2022/03/07 12:53:03;;;;;;;;;;;2.10;77.20;;;;;;5012063;28;83142;-50
2022/03/07 12:55:29;;;;;;;;;;;2.10;76.50;;;;;;5010689;28;81851;-50
2022/03/07 12:57:58;;;;;;;;;;;2.10;76.70;;;;;;5010498;28;82770;-50
2022/03/07 13:00:23;;;;;;;;;;;2.10;76.60;;;;;;5010459;28;82874;-50
2022/03/07 13:02:50;;;;;;;;;;;2.10;76.50;;;;;;5010534;28;81812;-50
2022/03/07 13:05:17;;;;;;;;;;;2.20;76.40;;;;;;5010544;28;83046;-50
2022/03/07 13:07:52;;;;;;;;;;;2.10;76.60;;;;;;5010508;28;81732;-50
2022/03/07 13:10:19;;;;;;;;;;;2.20;76.40;;;;;;5011212;28;81057;-50
2022/03/07 13:12:44;;;;;;;;;;;2.20;76.30;;;;;;5011652;28;82140;-50
2022/03/07 13:15:10;;;;;;;;;;;2.20;76.40;;;;;;5013008;28;81800;-49
2022/03/07 13:17:36;;;;;;;;;;;2.20;76.30;;;;;;5009652;28;82849;-49
2022/03/07 13:20:01;;;;;;;;;;;2.20;76.50;;;;;;5009345;28;82469;-49
2022/03/07 13:22:30;;;;;;;;;;;2.20;76.20;;;;;;5010156;28;81926;-49
2022/03/07 13:24:57;;;;;;;;;;;2.20;76.20;;;;;;5010117;28;83018;-50
2022/03/07 13:27:23;;;;;;;;;;;2.20;76.40;;;;;;5010008;28;83324;-49
2022/03/07 13:30:00;;;;;;;;;;;2.20;76.20;;;;;;5009994;28;81950;-49
2022/03/07 13:32:31;;;;;;;;;;;2.10;76.50;;;;;;5010044;28;83025;-49
2022/03/07 13:34:57;;;;;;;;;;;2.20;76.50;;;;;;5010753;28;81835;-49
2022/03/07 13:37:30;;;;;;;;;;;2.20;76.50;;;;;;5012629;28;81847;-50
2022/03/07 13:39:59;;;;;;;;;;;2.20;76.30;;;;;;5009795;28;83590;-49
2022/03/07 13:42:25;;;;;;;;;;;2.20;76.60;;;;;;5009280;28;82763;-49
2022/03/07 13:44:55;;;;;;;;;;;2.20;76.40;;;;;;5009953;28;81955;-49
2022/03/07 13:47:25;;;;;;;;;;;2.20;76.60;;;;;;5009879;28;82458;-49
2022/03/07 13:49:52;;;;;;;;;;;2.20;76.60;;;;;;5009938;28;81936;-49
2022/03/07 13:52:22;;;;;;;;;;;2.20;76.60;;;;;;5010174;28;82073;-49
2022/03/07 13:54:50;;;;;;;;;;;2.20;76.60;;;;;;5009115;28;81772;-49
2022/03/07 13:57:16;;;;;;;;;;;2.20;76.30;;;;;;5012388;28;81834;-49
2022/03/07 14:00:14;;;;;;;;;;;2.20;76.60;;;;;;5010387;28;81445;-51
2022/03/07 14:02:40;;;;;;;;;;;2.20;76.50;;;;;;4953681;28;82137;-49
2022/03/07 14:05:06;;;;;;;;;;;2.20;76.60;;;;;;5009742;28;81828;-49
2022/03/07 14:07:32;;;;;;;;;;;2.20;76.60;;;;;;5008722;28;85772;-49
2022/03/07 14:09:59;;;;;;;;;;;2.20;76.60;;;;;;5009536;28;81826;-50
2022/03/07 14:12:34;;;;;;;;;;;2.20;76.60;;;;;;5009781;28;82850;-52
2022/03/07 14:15:05;;;;;;;;;;;2.20;76.30;;;;;;5009334;28;82463;-52
2022/03/07 14:17:32;;;;;;;;;;;2.20;76.50;;;;;;5009176;28;81949;-55
2022/03/07 14:19:58;;;;;;;;;;;2.20;76.70;;;;;;5011998;28;82066;-57
2022/03/07 14:22:24;;;;;;;;;;;2.20;76.50;;;;;;5009811;28;81855;-60
2022/03/07 14:24:51;;;;;;;;;;;2.20;76.50;;;;;;5009966;28;81895;-58
2022/03/07 14:27:17;;;;;;;;;;;2.20;76.10;;;;;;5009700;28;82786;-58
2022/03/07 14:29:43;;;;;;;;;;;2.30;76.20;;;;;;5009619;28;81851;-52
2022/03/07 14:32:12;;;;;;;;;;;2.30;76.60;;;;;;5009390;28;82742;-54